sensor_id;sensor_type;location;lat;lon;timestamp;P1;durP1;ratioP1;P2;durP2;ratioP2
50555;SDS011;36508;52.512;13.450;2024-03-23T00:54:03;10.37;;;5.03;;
50555;SDS011;36508;52.512;13.450;2024-03-23T00:56:29;11.60;;;3.33;;
50555;SDS011;36508;52.512;13.450;2024-03-23T00:58:55;12.03;;;3.67;;
50555;SDS011;36508;52.512;13.450;2024-03-23T01:01:20;10.03;;;4.10;;
50555;SDS011;36508;52.512;13.450;2024-03-23T01:03:46;8.63;;;5.20;;
50555;SDS011;36508;52.512;13.450;2024-03-23T01:06:12;8.83;;;3.00;;
50555;SDS011;36508;52.512;13.450;2024-03-23T01:08:37;15.57;;;5.57;;
50555;SDS011;36508;52.512;13.450;2024-03-23T01:11:03;9.37;;;4.20;;
50555;SDS011;36508;52.512;13.450;2024-03-23T01:13:29;8.43;;;3.50;;
50555;SDS011;36508;52.512;13.450;2024-03-23T01:15:55;9.20;;;4.00;;
50555;SDS011;36508;52.512;13.450;2024-03-23T01:18:21;8.23;;;3.70;;
50555;SDS011;36508;52.512;13.450;2024-03-23T01:20:48;11.03;;;4.37;;
50555;SDS011;36508;52.512;13.450;2024-03-23T01:23:14;14.03;;;4.50;;
50555;SDS011;36508;52.512;13.450;2024-03-23T01:25:39;11.90;;;3.37;;
50555;SDS011;36508;52.512;13.450;2024-03-23T01:28:06;12.70;;;5.03;;
50555;SDS011;36508;52.512;13.450;2024-03-23T01:30:31;16.47;;;4.80;;
50555;SDS011;36508;52.512;13.450;2024-03-23T01:32:57;10.17;;;3.80;;
50555;SDS011;36508;52.512;13.450;2024-03-23T01:35:23;7.47;;;3.90;;
50555;SDS011;36508;52.512;13.450;2024-03-23T01:37:49;7.60;;;4.30;;
50555;SDS011;36508;52.512;13.450;2024-03-23T01:40:16;10.73;;;3.80;;
50555;SDS011;36508;52.512;13.450;2024-03-23T01:42:42;11.20;;;4.77;;
50555;SDS011;36508;52.512;13.450;2024-03-23T01:45:07;8.20;;;3.73;;
50555;SDS011;36508;52.512;13.450;2024-03-23T01:47:34;16.07;;;4.80;;
50555;SDS011;36508;52.512;13.450;2024-03-23T01:50:00;10.73;;;4.10;;
50555;SDS011;36508;52.512;13.450;2024-03-23T01:52:26;9.93;;;4.17;;
50555;SDS011;36508;52.512;13.450;2024-03-23T01:54:55;13.23;;;4.00;;
50555;SDS011;36508;52.512;13.450;2024-03-23T01:57:21;15.90;;;6.57;;
50555;SDS011;36508;52.512;13.450;2024-03-23T01:59:47;13.30;;;4.73;;
50555;SDS011;36508;52.512;13.450;2024-03-23T02:02:13;13.90;;;4.60;;
50555;SDS011;36508;52.512;13.450;2024-03-23T02:04:38;8.00;;;4.20;;
50555;SDS011;36508;52.512;13.450;2024-03-23T02:07:04;16.00;;;4.30;;
50555;SDS011;36508;52.512;13.450;2024-03-23T02:09:32;14.53;;;4.90;;
50555;SDS011;36508;52.512;13.450;2024-03-23T02:11:58;11.80;;;4.73;;
50555;SDS011;36508;52.512;13.450;2024-03-23T02:14:23;9.57;;;4.57;;
50555;SDS011;36508;52.512;13.450;2024-03-23T02:16:49;7.60;;;3.97;;
50555;SDS011;36508;52.512;13.450;2024-03-23T02:19:14;10.40;;;4.87;;
50555;SDS011;36508;52.512;13.450;2024-03-23T02:21:40;14.33;;;5.03;;
50555;SDS011;36508;52.512;13.450;2024-03-23T02:24:06;12.23;;;5.63;;
50555;SDS011;36508;52.512;13.450;2024-03-23T02:26:31;11.70;;;5.00;;
50555;SDS011;36508;52.512;13.450;2024-03-23T02:28:57;15.50;;;5.07;;
50555;SDS011;36508;52.512;13.450;2024-03-23T02:31:22;18.47;;;6.60;;
50555;SDS011;36508;52.512;13.450;2024-03-23T02:33:48;14.23;;;6.93;;
50555;SDS011;36508;52.512;13.450;2024-03-23T02:36:13;24.00;;;6.90;;
50555;SDS011;36508;52.512;13.450;2024-03-23T02:38:39;11.33;;;5.53;;
50555;SDS011;36508;52.512;13.450;2024-03-23T02:41:05;17.33;;;5.73;;
50555;SDS011;36508;52.512;13.450;2024-03-23T02:43:30;10.10;;;5.00;;
50555;SDS011;36508;52.512;13.450;2024-03-23T02:45:56;12.80;;;5.20;;
50555;SDS011;36508;52.512;13.450;2024-03-23T02:48:22;16.53;;;5.90;;
50555;SDS011;36508;52.512;13.450;2024-03-23T02:50:49;17.37;;;4.57;;
50555;SDS011;36508;52.512;13.450;2024-03-23T02:53:14;16.03;;;6.00;;
50555;SDS011;36508;52.512;13.450;2024-03-23T02:55:40;11.00;;;4.77;;
50555;SDS011;36508;52.512;13.450;2024-03-23T02:58:05;18.90;;;5.33;;
50555;SDS011;36508;52.512;13.450;2024-03-23T03:00:31;10.70;;;4.37;;
50555;SDS011;36508;52.512;13.450;2024-03-23T03:02:56;10.70;;;5.57;;
50555;SDS011;36508;52.512;13.450;2024-03-23T03:05:22;11.47;;;4.40;;
50555;SDS011;36508;52.512;13.450;2024-03-23T03:07:48;14.10;;;5.50;;
50555;SDS011;36508;52.512;13.450;2024-03-23T03:10:13;18.40;;;4.47;;
50555;SDS011;36508;52.512;13.450;2024-03-23T03:12:39;11.03;;;5.27;;
50555;SDS011;36508;52.512;13.450;2024-03-23T03:15:05;18.20;;;6.93;;
50555;SDS011;36508;52.512;13.450;2024-03-23T03:17:31;17.40;;;6.17;;
50555;SDS011;36508;52.512;13.450;2024-03-23T03:19:56;20.07;;;6.00;;
50555;SDS011;36508;52.512;13.450;2024-03-23T03:22:22;13.13;;;6.00;;
50555;SDS011;36508;52.512;13.450;2024-03-23T03:24:48;10.70;;;5.37;;
50555;SDS011;36508;52.512;13.450;2024-03-23T03:27:14;12.60;;;5.73;;
50555;SDS011;36508;52.512;13.450;2024-03-23T03:29:40;14.87;;;5.67;;
50555;SDS011;36508;52.512;13.450;2024-03-23T03:34:43;14.73;;;5.80;;
50555;SDS011;36508;52.512;13.450;2024-03-23T03:37:08;14.97;;;5.90;;
50555;SDS011;36508;52.512;13.450;2024-03-23T03:39:34;18.27;;;7.60;;
50555;SDS011;36508;52.512;13.450;2024-03-23T03:41:59;10.27;;;5.93;;
50555;SDS011;36508;52.512;13.450;2024-03-23T03:44:26;14.80;;;5.83;;
50555;SDS011;36508;52.512;13.450;2024-03-23T03:46:52;12.57;;;6.23;;
50555;SDS011;36508;52.512;13.450;2024-03-23T03:49:17;8.77;;;5.13;;
50555;SDS011;36508;52.512;13.450;2024-03-23T03:51:43;13.83;;;6.20;;
50555;SDS011;36508;52.512;13.450;2024-03-23T03:54:08;10.90;;;5.20;;
50555;SDS011;36508;52.512;13.450;2024-03-23T03:56:34;9.73;;;4.60;;
50555;SDS011;36508;52.512;13.450;2024-03-23T03:58:59;9.23;;;4.70;;
50555;SDS011;36508;52.512;13.450;2024-03-23T04:01:25;9.80;;;4.20;;
50555;SDS011;36508;52.512;13.450;2024-03-23T04:03:51;14.27;;;3.50;;
50555;SDS011;36508;52.512;13.450;2024-03-23T04:06:19;12.63;;;5.07;;
50555;SDS011;36508;52.512;13.450;2024-03-23T04:08:45;11.17;;;4.37;;
50555;SDS011;36508;52.512;13.450;2024-03-23T04:11:11;9.23;;;4.10;;
50555;SDS011;36508;52.512;13.450;2024-03-23T04:13:36;9.90;;;3.40;;
50555;SDS011;36508;52.512;13.450;2024-03-23T04:16:02;9.80;;;3.27;;
50555;SDS011;36508;52.512;13.450;2024-03-23T04:18:28;7.50;;;2.70;;
50555;SDS011;36508;52.512;13.450;2024-03-23T04:20:54;12.07;;;4.23;;
50555;SDS011;36508;52.512;13.450;2024-03-23T04:23:19;15.80;;;4.07;;
50555;SDS011;36508;52.512;13.450;2024-03-23T04:25:46;6.27;;;2.53;;
50555;SDS011;36508;52.512;13.450;2024-03-23T04:28:11;6.87;;;2.70;;
50555;SDS011;36508;52.512;13.450;2024-03-23T04:30:37;3.40;;;2.40;;
50555;SDS011;36508;52.512;13.450;2024-03-23T04:33:02;5.70;;;2.27;;
50555;SDS011;36508;52.512;13.450;2024-03-23T04:35:28;5.17;;;3.10;;
50555;SDS011;36508;52.512;13.450;2024-03-23T04:37:54;6.07;;;3.00;;
50555;SDS011;36508;52.512;13.450;2024-03-23T04:40:20;13.93;;;5.60;;
50555;SDS011;36508;52.512;13.450;2024-03-23T04:42:46;7.87;;;2.77;;
50555;SDS011;36508;52.512;13.450;2024-03-23T04:45:12;7.00;;;2.43;;
50555;SDS011;36508;52.512;13.450;2024-03-23T04:47:38;8.27;;;2.70;;
50555;SDS011;36508;52.512;13.450;2024-03-23T04:50:04;5.20;;;1.93;;
50555;SDS011;36508;52.512;13.450;2024-03-23T04:52:30;5.83;;;2.10;;
50555;SDS011;36508;52.512;13.450;2024-03-23T04:54:55;6.60;;;2.07;;
50555;SDS011;36508;52.512;13.450;2024-03-23T04:57:21;4.20;;;2.27;;
50555;SDS011;36508;52.512;13.450;2024-03-23T04:59:47;6.13;;;2.60;;
50555;SDS011;36508;52.512;13.450;2024-03-23T05:02:13;4.37;;;2.23;;
50555;SDS011;36508;52.512;13.450;2024-03-23T05:04:39;5.93;;;2.90;;
50555;SDS011;36508;52.512;13.450;2024-03-23T05:07:08;6.70;;;2.13;;
50555;SDS011;36508;52.512;13.450;2024-03-23T05:09:33;5.57;;;2.23;;
50555;SDS011;36508;52.512;13.450;2024-03-23T05:11:59;9.13;;;4.77;;
50555;SDS011;36508;52.512;13.450;2024-03-23T05:14:25;3.63;;;2.40;;
50555;SDS011;36508;52.512;13.450;2024-03-23T05:16:51;7.60;;;2.60;;
50555;SDS011;36508;52.512;13.450;2024-03-23T05:19:17;3.90;;;1.67;;
50555;SDS011;36508;52.512;13.450;2024-03-23T05:21:43;5.30;;;2.10;;
50555;SDS011;36508;52.512;13.450;2024-03-23T05:24:08;5.10;;;2.60;;
50555;SDS011;36508;52.512;13.450;2024-03-23T05:26:34;5.83;;;1.97;;
50555;SDS011;36508;52.512;13.450;2024-03-23T05:29:00;4.80;;;2.23;;
50555;SDS011;36508;52.512;13.450;2024-03-23T05:31:27;4.93;;;1.77;;
50555;SDS011;36508;52.512;13.450;2024-03-23T05:33:54;7.33;;;3.20;;
50555;SDS011;36508;52.512;13.450;2024-03-23T05:36:19;7.80;;;3.23;;
50555;SDS011;36508;52.512;13.450;2024-03-23T05:38:45;8.47;;;2.93;;
50555;SDS011;36508;52.512;13.450;2024-03-23T05:41:11;6.80;;;4.30;;
50555;SDS011;36508;52.512;13.450;2024-03-23T05:43:37;5.07;;;2.93;;
50555;SDS011;36508;52.512;13.450;2024-03-23T05:46:03;7.17;;;3.20;;
50555;SDS011;36508;52.512;13.450;2024-03-23T05:48:32;6.97;;;2.90;;
50555;SDS011;36508;52.512;13.450;2024-03-23T05:50:58;8.87;;;4.00;;
50555;SDS011;36508;52.512;13.450;2024-03-23T05:53:24;5.50;;;3.03;;
50555;SDS011;36508;52.512;13.450;2024-03-23T05:55:50;9.40;;;3.27;;
50555;SDS011;36508;52.512;13.450;2024-03-23T05:58:18;6.03;;;3.50;;
50555;SDS011;36508;52.512;13.450;2024-03-23T06:00:45;8.47;;;3.23;;
50555;SDS011;36508;52.512;13.450;2024-03-23T06:03:10;5.20;;;2.97;;
50555;SDS011;36508;52.512;13.450;2024-03-23T06:05:39;3.40;;;2.73;;
50555;SDS011;36508;52.512;13.450;2024-03-23T06:08:05;7.30;;;3.20;;
50555;SDS011;36508;52.512;13.450;2024-03-23T06:10:31;7.43;;;4.20;;
50555;SDS011;36508;52.512;13.450;2024-03-23T06:12:57;7.87;;;3.03;;
50555;SDS011;36508;52.512;13.450;2024-03-23T06:15:24;6.80;;;3.00;;
50555;SDS011;36508;52.512;13.450;2024-03-23T06:17:49;4.60;;;3.40;;
50555;SDS011;36508;52.512;13.450;2024-03-23T06:20:15;5.97;;;3.03;;
50555;SDS011;36508;52.512;13.450;2024-03-23T06:22:41;4.40;;;3.10;;
50555;SDS011;36508;52.512;13.450;2024-03-23T06:25:07;10.37;;;3.90;;
50555;SDS011;36508;52.512;13.450;2024-03-23T06:27:33;8.10;;;3.47;;
50555;SDS011;36508;52.512;13.450;2024-03-23T06:29:59;12.80;;;3.50;;
50555;SDS011;36508;52.512;13.450;2024-03-23T06:32:25;11.73;;;4.53;;
50555;SDS011;36508;52.512;13.450;2024-03-23T06:34:50;7.27;;;4.20;;
50555;SDS011;36508;52.512;13.450;2024-03-23T06:37:16;5.70;;;2.90;;
50555;SDS011;36508;52.512;13.450;2024-03-23T06:39:41;7.13;;;3.20;;
50555;SDS011;36508;52.512;13.450;2024-03-23T06:42:07;5.00;;;3.33;;
50555;SDS011;36508;52.512;13.450;2024-03-23T06:44:33;4.43;;;2.40;;
50555;SDS011;36508;52.512;13.450;2024-03-23T06:46:58;7.60;;;3.70;;
50555;SDS011;36508;52.512;13.450;2024-03-23T06:49:24;10.33;;;3.17;;
50555;SDS011;36508;52.512;13.450;2024-03-23T06:51:50;3.90;;;2.77;;
50555;SDS011;36508;52.512;13.450;2024-03-23T06:54:19;6.30;;;2.83;;
50555;SDS011;36508;52.512;13.450;2024-03-23T06:56:45;7.07;;;2.70;;
50555;SDS011;36508;52.512;13.450;2024-03-23T06:59:11;4.67;;;2.60;;
50555;SDS011;36508;52.512;13.450;2024-03-23T07:01:36;5.00;;;3.30;;
50555;SDS011;36508;52.512;13.450;2024-03-23T07:04:02;4.07;;;2.57;;
50555;SDS011;36508;52.512;13.450;2024-03-23T07:06:29;8.03;;;2.13;;
50555;SDS011;36508;52.512;13.450;2024-03-23T07:08:54;7.00;;;2.87;;
50555;SDS011;36508;52.512;13.450;2024-03-23T07:11:23;7.20;;;2.83;;
50555;SDS011;36508;52.512;13.450;2024-03-23T07:13:49;7.60;;;3.00;;
50555;SDS011;36508;52.512;13.450;2024-03-23T07:16:16;7.93;;;2.83;;
50555;SDS011;36508;52.512;13.450;2024-03-23T07:18:41;8.70;;;3.97;;
50555;SDS011;36508;52.512;13.450;2024-03-23T07:21:07;5.60;;;3.63;;
50555;SDS011;36508;52.512;13.450;2024-03-23T07:23:33;3.97;;;2.50;;
50555;SDS011;36508;52.512;13.450;2024-03-23T07:25:59;12.97;;;4.27;;
50555;SDS011;36508;52.512;13.450;2024-03-23T07:28:26;11.87;;;5.60;;
50555;SDS011;36508;52.512;13.450;2024-03-23T07:31:02;3.90;;;2.07;;
50555;SDS011;36508;52.512;13.450;2024-03-23T07:33:35;5.40;;;3.23;;
50555;SDS011;36508;52.512;13.450;2024-03-23T07:36:02;3.87;;;2.87;;
50555;SDS011;36508;52.512;13.450;2024-03-23T07:38:28;3.93;;;2.53;;
50555;SDS011;36508;52.512;13.450;2024-03-23T07:43:32;9.83;;;3.90;;
50555;SDS011;36508;52.512;13.450;2024-03-23T07:45:58;7.17;;;3.23;;
50555;SDS011;36508;52.512;13.450;2024-03-23T07:48:24;4.07;;;2.80;;
50555;SDS011;36508;52.512;13.450;2024-03-23T07:53:26;8.67;;;3.50;;
50555;SDS011;36508;52.512;13.450;2024-03-23T07:55:59;4.53;;;3.40;;
50555;SDS011;36508;52.512;13.450;2024-03-23T07:58:25;9.53;;;3.33;;
50555;SDS011;36508;52.512;13.450;2024-03-23T08:00:54;5.10;;;3.33;;
50555;SDS011;36508;52.512;13.450;2024-03-23T08:03:21;8.00;;;2.43;;
50555;SDS011;36508;52.512;13.450;2024-03-23T08:05:47;6.57;;;2.37;;
50555;SDS011;36508;52.512;13.450;2024-03-23T08:08:13;11.90;;;3.13;;
50555;SDS011;36508;52.512;13.450;2024-03-23T08:10:48;4.00;;;2.20;;
50555;SDS011;36508;52.512;13.450;2024-03-23T08:13:15;3.97;;;2.77;;
50555;SDS011;36508;52.512;13.450;2024-03-23T08:15:40;4.30;;;1.90;;
50555;SDS011;36508;52.512;13.450;2024-03-23T08:18:06;6.93;;;3.00;;
50555;SDS011;36508;52.512;13.450;2024-03-23T08:20:32;7.03;;;2.40;;
50555;SDS011;36508;52.512;13.450;2024-03-23T08:22:58;8.00;;;2.60;;
50555;SDS011;36508;52.512;13.450;2024-03-23T08:25:23;7.70;;;3.90;;
50555;SDS011;36508;52.512;13.450;2024-03-23T08:27:49;4.80;;;3.23;;
50555;SDS011;36508;52.512;13.450;2024-03-23T08:30:14;5.03;;;2.13;;
50555;SDS011;36508;52.512;13.450;2024-03-23T08:32:40;2.23;;;2.13;;
50555;SDS011;36508;52.512;13.450;2024-03-23T08:35:06;5.03;;;2.57;;
50555;SDS011;36508;52.512;13.450;2024-03-23T08:37:32;2.13;;;1.53;;
50555;SDS011;36508;52.512;13.450;2024-03-23T08:39:58;4.03;;;3.33;;
50555;SDS011;36508;52.512;13.450;2024-03-23T08:42:24;5.70;;;2.83;;
50555;SDS011;36508;52.512;13.450;2024-03-23T08:44:49;6.40;;;3.20;;
50555;SDS011;36508;52.512;13.450;2024-03-23T08:47:15;7.40;;;3.17;;
50555;SDS011;36508;52.512;13.450;2024-03-23T08:49:41;8.40;;;2.87;;
50555;SDS011;36508;52.512;13.450;2024-03-23T08:52:07;9.23;;;3.80;;
50555;SDS011;36508;52.512;13.450;2024-03-23T08:54:33;11.13;;;5.00;;
50555;SDS011;36508;52.512;13.450;2024-03-23T08:56:59;11.27;;;3.30;;
50555;SDS011;36508;52.512;13.450;2024-03-23T08:59:25;8.37;;;3.83;;
50555;SDS011;36508;52.512;13.450;2024-03-23T09:01:50;5.77;;;2.87;;
50555;SDS011;36508;52.512;13.450;2024-03-23T09:04:16;4.83;;;2.50;;
50555;SDS011;36508;52.512;13.450;2024-03-23T09:06:44;3.27;;;2.80;;
50555;SDS011;36508;52.512;13.450;2024-03-23T09:09:10;5.57;;;2.90;;
50555;SDS011;36508;52.512;13.450;2024-03-23T09:11:35;6.63;;;3.10;;
50555;SDS011;36508;52.512;13.450;2024-03-23T09:14:02;7.00;;;3.27;;
50555;SDS011;36508;52.512;13.450;2024-03-23T09:16:28;2.80;;;2.30;;
50555;SDS011;36508;52.512;13.450;2024-03-23T09:18:54;2.83;;;2.00;;
50555;SDS011;36508;52.512;13.450;2024-03-23T09:21:32;2.17;;;1.80;;
50555;SDS011;36508;52.512;13.450;2024-03-23T09:23:57;4.10;;;2.20;;
50555;SDS011;36508;52.512;13.450;2024-03-23T09:26:23;2.57;;;2.23;;
50555;SDS011;36508;52.512;13.450;2024-03-23T09:28:48;3.20;;;2.57;;
50555;SDS011;36508;52.512;13.450;2024-03-23T09:31:14;5.80;;;2.60;;
50555;SDS011;36508;52.512;13.450;2024-03-23T09:33:40;5.43;;;2.27;;
50555;SDS011;36508;52.512;13.450;2024-03-23T09:36:06;2.80;;;1.70;;
50555;SDS011;36508;52.512;13.450;2024-03-23T09:38:32;10.00;;;2.40;;
50555;SDS011;36508;52.512;13.450;2024-03-23T09:40:59;3.20;;;2.90;;
50555;SDS011;36508;52.512;13.450;2024-03-23T09:43:25;3.00;;;2.10;;
50555;SDS011;36508;52.512;13.450;2024-03-23T09:45:51;4.30;;;2.33;;
50555;SDS011;36508;52.512;13.450;2024-03-23T09:48:17;6.73;;;1.67;;
50555;SDS011;36508;52.512;13.450;2024-03-23T09:50:44;4.40;;;2.17;;
50555;SDS011;36508;52.512;13.450;2024-03-23T09:53:11;2.40;;;2.20;;
50555;SDS011;36508;52.512;13.450;2024-03-23T09:55:37;6.47;;;2.00;;
50555;SDS011;36508;52.512;13.450;2024-03-23T09:58:04;3.63;;;2.33;;
50555;SDS011;36508;52.512;13.450;2024-03-23T10:00:30;7.60;;;2.70;;
50555;SDS011;36508;52.512;13.450;2024-03-23T10:03:02;4.33;;;2.60;;
50555;SDS011;36508;52.512;13.450;2024-03-23T10:05:28;11.47;;;3.63;;
50555;SDS011;36508;52.512;13.450;2024-03-23T10:07:55;7.40;;;2.23;;
50555;SDS011;36508;52.512;13.450;2024-03-23T10:10:20;6.30;;;2.60;;
50555;SDS011;36508;52.512;13.450;2024-03-23T10:12:48;3.27;;;2.10;;
50555;SDS011;36508;52.512;13.450;2024-03-23T10:15:18;7.70;;;1.50;;
50555;SDS011;36508;52.512;13.450;2024-03-23T10:17:47;7.50;;;3.00;;
50555;SDS011;36508;52.512;13.450;2024-03-23T10:20:15;2.47;;;1.97;;
50555;SDS011;36508;52.512;13.450;2024-03-23T10:22:48;5.47;;;3.10;;
50555;SDS011;36508;52.512;13.450;2024-03-23T10:25:14;3.30;;;2.07;;
50555;SDS011;36508;52.512;13.450;2024-03-23T10:27:40;2.60;;;2.00;;
50555;SDS011;36508;52.512;13.450;2024-03-23T10:30:10;3.87;;;1.83;;
50555;SDS011;36508;52.512;13.450;2024-03-23T10:32:41;3.87;;;2.33;;
50555;SDS011;36508;52.512;13.450;2024-03-23T10:35:14;4.70;;;2.53;;
50555;SDS011;36508;52.512;13.450;2024-03-23T10:37:40;3.43;;;1.93;;
50555;SDS011;36508;52.512;13.450;2024-03-23T10:40:07;12.27;;;3.23;;
50555;SDS011;36508;52.512;13.450;2024-03-23T10:42:34;6.00;;;4.00;;
50555;SDS011;36508;52.512;13.450;2024-03-23T10:45:01;4.67;;;2.63;;
50555;SDS011;36508;52.512;13.450;2024-03-23T10:47:29;7.93;;;2.77;;
50555;SDS011;36508;52.512;13.450;2024-03-23T10:49:56;3.73;;;2.33;;
50555;SDS011;36508;52.512;13.450;2024-03-23T10:52:22;5.87;;;3.17;;
50555;SDS011;36508;52.512;13.450;2024-03-23T10:54:48;2.30;;;2.10;;
50555;SDS011;36508;52.512;13.450;2024-03-23T10:57:23;9.27;;;2.33;;
50555;SDS011;36508;52.512;13.450;2024-03-23T10:59:55;3.73;;;2.10;;
50555;SDS011;36508;52.512;13.450;2024-03-23T11:02:22;5.57;;;2.57;;
50555;SDS011;36508;52.512;13.450;2024-03-23T11:04:48;3.33;;;2.87;;
50555;SDS011;36508;52.512;13.450;2024-03-23T11:09:51;4.40;;;2.27;;
50555;SDS011;36508;52.512;13.450;2024-03-23T11:14:53;6.90;;;2.60;;
50555;SDS011;36508;52.512;13.450;2024-03-23T11:17:20;12.73;;;2.60;;
50555;SDS011;36508;52.512;13.450;2024-03-23T11:20:01;7.07;;;2.63;;
50555;SDS011;36508;52.512;13.450;2024-03-23T11:25:20;2.70;;;1.60;;
50555;SDS011;36508;52.512;13.450;2024-03-23T11:27:47;11.93;;;2.47;;
50555;SDS011;36508;52.512;13.450;2024-03-23T11:30:20;6.60;;;2.50;;
50555;SDS011;36508;52.512;13.450;2024-03-23T11:32:47;9.60;;;3.40;;
50555;SDS011;36508;52.512;13.450;2024-03-23T11:35:26;5.60;;;2.43;;
50555;SDS011;36508;52.512;13.450;2024-03-23T11:38:01;3.97;;;1.77;;
50555;SDS011;36508;52.512;13.450;2024-03-23T11:40:28;4.40;;;2.57;;
50555;SDS011;36508;52.512;13.450;2024-03-23T11:43:01;3.57;;;2.30;;
50555;SDS011;36508;52.512;13.450;2024-03-23T11:45:28;5.87;;;2.00;;
50555;SDS011;36508;52.512;13.450;2024-03-23T11:50:26;5.60;;;1.73;;
50555;SDS011;36508;52.512;13.450;2024-03-23T11:52:51;4.87;;;2.60;;
50555;SDS011;36508;52.512;13.450;2024-03-23T11:55:17;6.30;;;2.73;;
50555;SDS011;36508;52.512;13.450;2024-03-23T11:57:43;6.03;;;2.90;;
50555;SDS011;36508;52.512;13.450;2024-03-23T12:00:21;3.63;;;2.33;;
50555;SDS011;36508;52.512;13.450;2024-03-23T12:02:47;7.50;;;3.17;;
50555;SDS011;36508;52.512;13.450;2024-03-23T12:05:16;8.80;;;3.80;;
50555;SDS011;36508;52.512;13.450;2024-03-23T12:07:42;5.03;;;3.20;;
50555;SDS011;36508;52.512;13.450;2024-03-23T12:10:07;5.53;;;3.30;;
50555;SDS011;36508;52.512;13.450;2024-03-23T12:12:33;9.67;;;2.73;;
50555;SDS011;36508;52.512;13.450;2024-03-23T12:15:03;4.13;;;2.77;;
50555;SDS011;36508;52.512;13.450;2024-03-23T12:17:33;6.87;;;3.20;;
50555;SDS011;36508;52.512;13.450;2024-03-23T12:20:02;5.90;;;3.37;;
50555;SDS011;36508;52.512;13.450;2024-03-23T12:25:04;6.83;;;3.03;;
50555;SDS011;36508;52.512;13.450;2024-03-23T12:27:31;5.27;;;3.03;;
50555;SDS011;36508;52.512;13.450;2024-03-23T12:29:57;2.10;;;1.90;;
50555;SDS011;36508;52.512;13.450;2024-03-23T12:32:23;4.50;;;2.27;;
50555;SDS011;36508;52.512;13.450;2024-03-23T12:34:48;4.77;;;1.53;;
50555;SDS011;36508;52.512;13.450;2024-03-23T12:37:14;8.53;;;3.10;;
50555;SDS011;36508;52.512;13.450;2024-03-23T12:39:42;8.97;;;3.80;;
50555;SDS011;36508;52.512;13.450;2024-03-23T12:42:07;7.93;;;3.30;;
50555;SDS011;36508;52.512;13.450;2024-03-23T12:44:33;6.43;;;3.00;;
50555;SDS011;36508;52.512;13.450;2024-03-23T12:46:58;6.40;;;3.60;;
50555;SDS011;36508;52.512;13.450;2024-03-23T12:49:24;9.43;;;3.90;;
50555;SDS011;36508;52.512;13.450;2024-03-23T12:51:53;7.80;;;3.17;;
50555;SDS011;36508;52.512;13.450;2024-03-23T12:54:20;7.03;;;3.20;;
50555;SDS011;36508;52.512;13.450;2024-03-23T12:56:46;8.43;;;3.27;;
50555;SDS011;36508;52.512;13.450;2024-03-23T12:59:12;4.70;;;2.33;;
50555;SDS011;36508;52.512;13.450;2024-03-23T13:01:38;4.43;;;2.17;;
50555;SDS011;36508;52.512;13.450;2024-03-23T13:04:04;7.80;;;4.13;;
50555;SDS011;36508;52.512;13.450;2024-03-23T13:06:30;8.40;;;2.00;;
50555;SDS011;36508;52.512;13.450;2024-03-23T13:08:59;5.00;;;1.70;;
50555;SDS011;36508;52.512;13.450;2024-03-23T13:11:29;5.10;;;2.17;;
50555;SDS011;36508;52.512;13.450;2024-03-23T13:13:55;3.50;;;2.10;;
50555;SDS011;36508;52.512;13.450;2024-03-23T13:16:20;6.67;;;2.63;;
50555;SDS011;36508;52.512;13.450;2024-03-23T13:18:46;4.50;;;2.67;;
50555;SDS011;36508;52.512;13.450;2024-03-23T13:21:11;4.17;;;1.83;;
50555;SDS011;36508;52.512;13.450;2024-03-23T13:23:37;2.37;;;2.17;;
50555;SDS011;36508;52.512;13.450;2024-03-23T13:26:06;5.50;;;2.60;;
50555;SDS011;36508;52.512;13.450;2024-03-23T13:28:32;6.70;;;3.30;;
50555;SDS011;36508;52.512;13.450;2024-03-23T13:30:58;6.60;;;2.63;;
50555;SDS011;36508;52.512;13.450;2024-03-23T13:33:28;9.90;;;3.73;;
50555;SDS011;36508;52.512;13.450;2024-03-23T13:35:54;6.63;;;3.23;;
50555;SDS011;36508;52.512;13.450;2024-03-23T13:38:21;3.47;;;2.90;;
50555;SDS011;36508;52.512;13.450;2024-03-23T13:43:19;4.13;;;2.73;;
50555;SDS011;36508;52.512;13.450;2024-03-23T13:45:49;3.73;;;3.00;;
50555;SDS011;36508;52.512;13.450;2024-03-23T13:48:18;5.53;;;3.13;;
50555;SDS011;36508;52.512;13.450;2024-03-23T13:53:24;7.23;;;2.80;;
50555;SDS011;36508;52.512;13.450;2024-03-23T13:55:50;6.17;;;3.67;;
50555;SDS011;36508;52.512;13.450;2024-03-23T13:58:16;3.87;;;2.63;;
50555;SDS011;36508;52.512;13.450;2024-03-23T14:00:42;6.37;;;3.60;;
50555;SDS011;36508;52.512;13.450;2024-03-23T14:03:08;6.50;;;3.20;;
50555;SDS011;36508;52.512;13.450;2024-03-23T14:05:37;6.33;;;3.50;;
50555;SDS011;36508;52.512;13.450;2024-03-23T14:08:07;6.63;;;3.20;;
50555;SDS011;36508;52.512;13.450;2024-03-23T14:10:34;6.87;;;3.87;;
50555;SDS011;36508;52.512;13.450;2024-03-23T14:13:02;7.70;;;3.53;;
50555;SDS011;36508;52.512;13.450;2024-03-23T14:15:31;10.00;;;6.80;;
50555;SDS011;36508;52.512;13.450;2024-03-23T14:18:00;3.83;;;3.20;;
50555;SDS011;36508;52.512;13.450;2024-03-23T14:20:26;13.03;;;4.60;;
50555;SDS011;36508;52.512;13.450;2024-03-23T14:22:52;6.83;;;2.90;;
50555;SDS011;36508;52.512;13.450;2024-03-23T14:25:17;6.70;;;3.80;;
50555;SDS011;36508;52.512;13.450;2024-03-23T14:27:44;10.60;;;4.27;;
50555;SDS011;36508;52.512;13.450;2024-03-23T14:30:10;4.33;;;2.53;;
50555;SDS011;36508;52.512;13.450;2024-03-23T14:32:37;6.07;;;3.67;;
50555;SDS011;36508;52.512;13.450;2024-03-23T14:35:03;7.83;;;4.23;;
50555;SDS011;36508;52.512;13.450;2024-03-23T14:37:29;4.47;;;3.00;;
50555;SDS011;36508;52.512;13.450;2024-03-23T14:39:57;7.80;;;2.67;;
50555;SDS011;36508;52.512;13.450;2024-03-23T14:45:04;7.57;;;3.03;;
50555;SDS011;36508;52.512;13.450;2024-03-23T14:47:30;4.23;;;2.13;;
50555;SDS011;36508;52.512;13.450;2024-03-23T14:49:56;6.00;;;2.57;;
50555;SDS011;36508;52.512;13.450;2024-03-23T14:52:23;8.13;;;2.90;;
50555;SDS011;36508;52.512;13.450;2024-03-23T14:54:49;5.47;;;2.03;;
50555;SDS011;36508;52.512;13.450;2024-03-23T14:57:15;6.83;;;2.33;;
50555;SDS011;36508;52.512;13.450;2024-03-23T14:59:41;4.40;;;1.70;;
50555;SDS011;36508;52.512;13.450;2024-03-23T15:02:07;5.07;;;2.70;;
50555;SDS011;36508;52.512;13.450;2024-03-23T15:04:33;5.03;;;2.23;;
50555;SDS011;36508;52.512;13.450;2024-03-23T15:06:59;2.93;;;2.27;;
50555;SDS011;36508;52.512;13.450;2024-03-23T15:09:25;4.60;;;2.20;;
50555;SDS011;36508;52.512;13.450;2024-03-23T15:14:24;5.90;;;3.40;;
50555;SDS011;36508;52.512;13.450;2024-03-23T15:16:50;6.50;;;3.43;;
50555;SDS011;36508;52.512;13.450;2024-03-23T15:19:17;4.20;;;3.80;;
50555;SDS011;36508;52.512;13.450;2024-03-23T15:21:43;8.23;;;4.23;;
50555;SDS011;36508;52.512;13.450;2024-03-23T15:24:09;6.77;;;4.27;;
50555;SDS011;36508;52.512;13.450;2024-03-23T15:26:37;4.43;;;3.97;;
50555;SDS011;36508;52.512;13.450;2024-03-23T15:29:03;4.33;;;3.77;;
50555;SDS011;36508;52.512;13.450;2024-03-23T15:31:34;8.33;;;3.50;;
50555;SDS011;36508;52.512;13.450;2024-03-23T15:34:00;3.27;;;2.97;;
50555;SDS011;36508;52.512;13.450;2024-03-23T15:36:26;3.00;;;2.27;;
50555;SDS011;36508;52.512;13.450;2024-03-23T15:38:51;5.43;;;3.10;;
50555;SDS011;36508;52.512;13.450;2024-03-23T15:41:19;3.90;;;2.70;;
50555;SDS011;36508;52.512;13.450;2024-03-23T15:43:45;7.60;;;3.20;;
50555;SDS011;36508;52.512;13.450;2024-03-23T15:46:11;5.33;;;3.53;;
50555;SDS011;36508;52.512;13.450;2024-03-23T15:48:36;4.63;;;2.40;;
50555;SDS011;36508;52.512;13.450;2024-03-23T15:51:03;4.50;;;3.03;;